• LFSB

    METAR de LFSB (émis le 2020/10/21 10:00 UTC):
    LFSB 211000Z 15009KT CAVOK 16/08 Q1011 NOSIG

    TAF de LFSB (émis le 2020/10/21 06:21 UTC):
    LFSB 210500Z 2106/2206 15006KT CAVOK
  • LFSX

    METAR de LFSX (émis le 2020/10/21 10:00 UTC):
    LFSX 211000Z AUTO 10005KT 080V140 CAVOK 14/10 Q1011

    TAF de LFSX (émis le 2020/10/21 09:42 UTC):
    LFSX 210800Z 2109/2209 10010KT CAVOK BECMG 2109/2110 20010G20KT TEMPO 2111/2118 20015G30KT BECMG 2118/2121 10010KT
  • LFSD

    METAR de LFSD (émis le 2020/10/21 10:00 UTC):
    LFSD 211000Z AUTO 19021KT CAVOK 19/09 Q1009

    TAF de LFSD (émis le 2015/06/01 00:11 UTC):
    LFSD 010600Z 0100/0124 CNL
  • LFGJ

    METAR de LFGJ (émis le 2020/10/21 10:00 UTC):
    LFGJ 211000Z AUTO 19017KT CAVOK 18/05 Q1010 TEMPO 20020G35KT

    TAF COURT de LFGJ
    (émis le 2020/10/21 09:42 UTC):
    TAF LFGJ 210800Z 2109/2118 19017KT CAVOK TEMPO 2109/2117 20020G35KT
  • LFJL

    METAR de LFJL (émis le 2020/10/21 10:00 UTC):
    LFJL 211000Z AUTO 19022KT CAVOK 19/07 Q1007 TEMPO 20020G35KT

    TAF de LFJL (émis le 2020/10/21 06:21 UTC):
    LFJL 210500Z 2106/2206 19015G25KT CAVOK PROB40 TEMPO 2109/2116 20020G35KT -RA BECMG 2116/2118 21012KT TEMPO 2118/2206 -RA BKN030
  • LFST

    METAR de LFST (émis le 2020/10/21 10:00 UTC):
    LFST 211000Z AUTO 16006KT 120V190 CAVOK 14/09 Q1010 NOSIG

    TAF de LFST (émis le 2020/10/21 06:21 UTC):
    LFST 210500Z 2106/2206 VRB03KT CAVOK BECMG 2109/2111 19010KT